Time;durP1;ratioP1;P1;durP2;ratioP2;P2;SDS_P1;SDS_P2;PMS_P1;PMS_P2;Temp;Humidity;BMP_temperature;BMP_pressure;BME280_temperature;BME280_humidity;BME280_pressure;Samples;Min_cycle;Max_cycle;Signal;HPM_P1;HPM_P2
2022/06/05 00:03:09;;;;;;;19.50;17.50;;;;;;;16.34;86.51;99037.76;220533;1273;22671;-72
2022/06/05 00:08:49;;;;;;;17.90;16.20;;;;;;;16.31;86.50;99032.55;220787;1272;25402;-72
2022/06/05 00:14:00;;;;;;;17.80;15.90;;;;;;;16.30;86.46;99035.73;220789;1271;321712;-72
2022/06/05 00:19:06;;;;;;;19.20;17.30;;;;;;;16.27;86.27;99034.98;220605;1271;22585;-73
2022/06/05 00:24:29;;;;;;;18.90;17.10;;;;;;;16.22;86.39;99038.89;220414;1272;22559;-73
2022/06/05 00:29:46;;;;;;;20.30;18.20;;;;;;;16.19;86.47;99043.06;220602;1271;22553;-72
2022/06/05 00:34:49;;;;;;;19.70;17.70;;;;;;;16.15;86.60;99044.86;220691;1271;22610;-73
2022/06/05 00:40:27;;;;;;;20.10;18.00;;;;;;;16.10;86.82;99044.97;220790;1271;24298;-72
2022/06/05 00:46:13;;;;;;;20.30;18.30;;;;;;;16.03;86.91;99044.04;220693;1271;24289;-73
2022/06/05 00:51:40;;;;;;;21.00;19.00;;;;;;;15.98;87.01;99045.16;220809;1271;22555;-73
2022/06/05 00:57:01;;;;;;;20.50;18.60;;;;;;;15.92;87.05;99035.36;220521;1273;22673;-73
2022/06/05 01:02:21;;;;;;;19.70;17.80;;;;;;;15.83;87.21;99026.75;220660;1273;22591;-72
2022/06/05 01:08:16;;;;;;;19.60;17.60;;;;;;;15.72;87.25;99015.12;220715;1273;22519;-74
2022/06/05 01:14:21;;;;;;;19.80;17.80;;;;;;;15.59;87.37;99027.17;220571;1273;24306;-72
2022/06/05 01:19:56;;;;;;;19.90;17.90;;;;;;;15.50;87.88;99022.67;220575;1273;24299;-72
2022/06/05 01:25:44;;;;;;;19.70;17.80;;;;;;;15.44;88.12;99029.02;220667;1273;22561;-73
2022/06/05 01:31:57;;;;;;;19.90;18.00;;;;;;;15.36;88.23;99028.86;221110;1271;22550;-73
2022/06/05 01:37:46;;;;;;;19.50;17.50;;;;;;;15.26;88.30;99028.39;220662;1272;22542;-72
2022/06/05 01:43:12;;;;;;;19.80;17.90;;;;;;;15.13;88.33;99023.41;220600;1272;22616;-73
2022/06/05 01:48:55;;;;;;;20.20;18.20;;;;;;;15.00;88.39;99016.75;220564;1273;22600;-73
2022/06/05 01:54:30;;;;;;;20.10;18.10;;;;;;;14.88;88.57;99021.59;220415;1271;24342;-73
2022/06/05 01:59:51;;;;;;;20.30;18.30;;;;;;;14.76;88.48;99027.15;220476;1271;25390;-72
2022/06/05 02:05:20;;;;;;;20.80;18.70;;;;;;;14.65;88.59;99028.83;220433;1271;24642;-72
2022/06/05 02:10:41;;;;;;;20.90;18.80;;;;;;;14.56;88.87;99035.48;220307;1271;22545;-73
2022/06/05 02:15:44;;;;;;;21.50;19.30;;;;;;;14.48;88.98;99039.63;220614;1271;23129;-73
2022/06/05 02:21:05;;;;;;;21.70;19.50;;;;;;;14.39;89.22;99034.94;220583;1271;25248;-73
2022/06/05 02:26:49;;;;;;;21.70;19.10;;;;;;;14.30;89.04;99031.98;220821;1271;22779;-72
2022/06/05 02:32:13;;;;;;;21.50;19.30;;;;;;;14.20;89.27;99041.14;220648;1272;23113;-73
2022/06/05 02:38:30;;;;;;;;;;;;;;;;;;;;;
2022/06/05 02:44:27;;;;;;;23.00;20.70;;;;;;;14.09;89.67;99054.07;220432;1271;23260;-72
2022/06/05 02:49:47;;;;;;;23.60;21.20;;;;;;;14.04;89.85;99050.20;220573;1271;22538;-73
2022/06/05 02:55:18;;;;;;;23.00;20.70;;;;;;;13.99;89.89;99047.62;220901;1273;22643;-71
2022/06/05 03:06:41;;;;;;;22.50;20.20;;;;;;;13.90;89.90;99058.95;220864;1271;22769;-73
2022/06/05 03:12:18;;;;;;;23.90;21.40;;;;;;;13.91;90.16;99057.60;220825;1271;26505;-72
2022/06/05 03:17:56;;;;;;;24.00;21.50;;;;;;;13.94;90.30;99054.90;220465;1271;24178;-73
2022/06/05 03:23:16;;;;;;;26.50;23.90;;;;;;;14.13;90.84;99059.52;220604;1271;22529;-72
2022/06/05 03:28:21;;;;;;;28.20;25.40;;;;;;;14.45;91.14;99064.02;220560;1271;24210;-73
2022/06/05 03:33:33;;;;;;;26.70;24.00;;;;;;;14.79;90.60;99060.01;220853;1271;22763;-73
2022/06/05 03:38:41;;;;;;;22.80;20.60;;;;;;;15.18;90.36;99069.83;220433;1271;22552;-73
2022/06/05 03:43:51;;;;;;;21.30;19.20;;;;;;;15.56;89.85;99072.77;220438;1271;22534;-71
2022/06/05 03:49:16;;;;;;;19.80;18.00;;;;;;;16.00;89.14;99076.44;220298;1271;25482;-71
2022/06/05 03:54:23;;;;;;;17.70;15.90;;;;;;;16.44;87.98;99085.40;220521;1273;22541;-72
2022/06/05 03:59:42;;;;;;;17.00;15.30;;;;;;;16.82;86.42;99090.82;220452;1271;26392;-72
2022/06/05 04:05:14;;;;;;;16.90;15.10;;;;;;;17.08;84.83;99097.39;220618;1271;22538;-74
2022/06/05 04:10:27;;;;;;;15.80;14.40;;;;;;;17.06;83.62;99098.29;220737;1271;22593;-73
2022/06/05 04:15:46;;;;;;;16.30;14.90;;;;;;;16.92;82.71;99098.30;220896;1271;22587;-73
2022/06/05 04:21:00;;;;;;;15.90;14.40;;;;;;;16.70;82.23;99101.44;220780;1272;22554;-72
2022/06/05 04:26:17;;;;;;;16.10;14.60;;;;;;;16.52;82.02;99098.48;220841;1271;24262;-73
2022/06/05 04:31:28;;;;;;;16.10;14.60;;;;;;;16.39;82.08;99095.30;220699;1271;25301;-74
2022/06/05 04:36:39;;;;;;;17.90;16.10;;;;;;;16.31;81.99;99090.59;220834;1271;26610;-72
2022/06/05 04:41:51;;;;;;;17.80;15.60;;;;;;;16.25;82.11;99088.73;220863;1271;22579;-73
2022/06/05 04:46:54;;;;;;;17.20;15.40;;;;;;;16.21;82.12;99091.20;220712;1271;22573;-72
2022/06/05 04:52:02;;;;;;;15.90;14.40;;;;;;;16.19;82.17;99096.13;220884;1271;22762;-72
2022/06/05 05:02:35;;;;;;;17.50;15.80;;;;;;;16.30;82.18;99107.09;220664;1271;26498;-73
2022/06/05 05:07:58;;;;;;;17.70;15.90;;;;;;;16.38;82.16;99114.58;220649;1271;24261;-74
2022/06/05 05:13:23;;;;;;;;;;;;;;;;;;;;;
2022/06/05 05:18:32;;;;;;;16.80;15.20;;;;;;;16.55;81.52;99097.59;220445;1273;22619;-72
2022/06/05 05:23:38;;;;;;;16.40;14.70;;;;;;;16.64;81.39;99099.40;220707;1274;22657;-71
2022/06/05 05:29:24;;;;;;;14.80;13.40;;;;;;;16.75;81.02;99094.89;220597;1271;22536;-73
2022/06/05 05:34:34;;;;;;;14.00;12.70;;;;;;;16.88;80.76;99095.62;220688;1272;22542;-73
2022/06/05 05:45:21;;;;;;;14.70;13.30;;;;;;;17.11;79.94;99090.15;220369;1271;22543;-72
2022/06/05 05:50:52;;;;;;;17.10;15.50;;;;;;;17.25;79.81;99083.31;220481;1271;24167;-73
2022/06/05 05:56:48;;;;;;;17.40;15.60;;;;;;;17.41;79.38;99076.68;220345;1271;22603;-74
2022/06/05 06:02:11;;;;;;;17.30;15.50;;;;;;;17.58;78.94;99089.39;220517;1271;22617;-72
2022/06/05 06:07:17;;;;;;;17.30;15.50;;;;;;;17.68;78.25;99089.68;220937;1271;22586;-72
2022/06/05 06:12:38;;;;;;;16.90;15.20;;;;;;;17.78;78.05;99090.24;220507;1271;25372;-73
2022/06/05 06:18:05;;;;;;;;;;;;;;;;;;;;;
2022/06/05 06:23:14;;;;;;;13.20;12.00;;;;;;;18.04;77.65;99086.14;221074;1271;22534;-72
2022/06/05 06:28:43;;;;;;;14.70;13.10;;;;;;;18.23;77.18;99084.48;220810;1274;22537;-72
2022/06/05 06:34:02;;;;;;;14.50;12.90;;;;;;;18.40;76.77;99083.70;220706;1271;23057;-73
2022/06/05 06:39:10;;;;;;;15.70;14.10;;;;;;;18.63;76.41;99082.82;220695;1271;25125;-72
2022/06/05 06:44:17;;;;;;;16.20;13.60;;;;;;;18.83;76.10;99079.01;221037;1271;25385;-72
2022/06/05 06:49:35;;;;;;;17.00;13.20;;;;;;;19.01;75.85;99072.10;220445;1271;22606;-73
2022/06/05 06:54:41;;;;;;;13.40;12.10;;;;;;;19.28;75.57;99070.48;220495;1271;25361;-71
2022/06/05 07:00:04;;;;;;;14.40;13.00;;;;;;;19.47;74.25;99074.12;220503;1272;22690;-73
2022/06/05 07:05:27;;;;;;;13.30;12.00;;;;;;;19.60;73.87;99071.39;221141;1271;25302;-72
2022/06/05 07:11:08;;;;;;;15.10;11.30;;;;;;;19.86;73.88;99071.81;220688;1271;25317;-72
2022/06/05 07:16:25;;;;;;;11.10;9.90;;;;;;;20.16;73.13;99069.58;220858;1271;26489;-72
2022/06/05 07:21:28;;;;;;;11.10;10.10;;;;;;;20.45;72.87;99071.84;221037;1271;22554;-73
2022/06/05 07:26:33;;;;;;;11.20;10.10;;;;;;;20.73;72.15;99074.40;220759;1272;24301;-73
2022/06/05 07:31:35;;;;;;;11.10;10.10;;;;;;;20.93;71.18;99075.33;220608;1273;25456;-72
2022/06/05 07:36:38;;;;;;;10.00;9.00;;;;;;;21.13;70.65;99079.52;220435;1273;22581;-73
2022/06/05 07:41:47;;;;;;;9.20;8.40;;;;;;;21.34;69.75;99086.56;220580;1271;22583;-72
2022/06/05 07:46:49;;;;;;;8.70;7.90;;;;;;;21.49;68.30;99085.77;220707;1271;26322;-72
2022/06/05 07:57:28;;;;;;;8.90;8.20;;;;;;;21.71;66.59;99089.41;220571;1273;24235;-72
2022/06/05 08:02:48;;;;;;;9.00;8.30;;;;;;;21.84;65.84;99093.52;220647;1271;22555;-72
2022/06/05 08:07:52;;;;;;;10.00;9.10;;;;;;;21.92;65.51;99089.33;220593;1271;22544;-71
2022/06/05 08:12:55;;;;;;;10.30;9.40;;;;;;;22.12;65.31;99080.70;220852;1271;22747;-72
2022/06/05 08:18:06;;;;;;;9.40;8.60;;;;;;;22.37;64.78;99072.08;221092;1271;25366;-72
2022/06/05 08:23:09;;;;;;;9.90;9.00;;;;;;;22.64;64.36;99068.92;220777;1271;22538;-72
2022/06/05 08:28:11;;;;;;;9.80;9.00;;;;;;;22.86;63.42;99071.50;220445;1271;22551;-73
2022/06/05 08:33:13;;;;;;;9.20;8.40;;;;;;;23.11;63.01;99073.50;220719;1271;22998;-71
2022/06/05 08:43:58;;;;;;;10.20;9.30;;;;;;;23.69;61.82;99064.39;220403;1271;22537;-72
2022/06/05 08:49:10;;;;;;;9.70;8.90;;;;;;;23.96;61.23;99066.17;220832;1271;22679;-72
2022/06/05 08:54:16;;;;;;;10.40;9.50;;;;;;;24.08;59.31;99069.69;220487;1271;22579;-74
2022/06/05 08:59:45;;;;;;;9.10;8.30;;;;;;;24.29;58.71;99065.33;220647;1274;24304;-73
2022/06/05 09:04:56;;;;;;;9.00;8.30;;;;;;;24.45;57.45;99069.50;220572;1273;22543;-72
2022/06/05 09:10:22;;;;;;;9.20;8.40;;;;;;;24.72;56.41;99067.91;220496;1273;25362;-71
2022/06/05 09:15:33;;;;;;;9.70;8.90;;;;;;;24.94;55.38;99072.98;220586;1273;22541;-72
2022/06/05 09:20:59;;;;;;;9.60;8.80;;;;;;;25.09;54.05;99071.38;220393;1273;22544;-71
2022/06/05 09:26:13;;;;;;;9.40;8.60;;;;;;;25.21;54.08;99070.92;220395;1271;22590;-72
2022/06/05 09:31:33;;;;;;;7.80;7.20;;;;;;;25.40;53.17;99067.24;220812;1271;25306;-72
2022/06/05 09:36:38;;;;;;;9.30;8.60;;;;;;;25.53;51.45;99066.88;220517;1271;25429;-73
2022/06/05 09:42:51;;;;;;;9.60;8.90;;;;;;;25.39;51.31;99073.59;220424;1271;22538;-73
2022/06/05 09:48:01;;;;;;;9.50;8.70;;;;;;;25.67;51.57;99072.45;220464;1271;24281;-72
2022/06/05 09:53:03;;;;;;;9.10;8.20;;;;;;;25.89;50.86;99070.20;220823;1271;26170;-71
2022/06/05 09:58:31;;;;;;;8.20;7.60;;;;;;;26.07;50.23;99061.92;220437;1271;22596;-72
2022/06/05 10:03:41;;;;;;;7.50;6.80;;;;;;;26.20;49.39;99062.60;220349;1273;25312;-71
2022/06/05 10:08:50;;;;;;;7.00;6.30;;;;;;;26.39;48.48;99054.59;220603;1273;26396;-71
2022/06/05 10:14:08;;;;;;;7.50;6.90;;;;;;;26.61;47.48;99057.46;220598;1273;22557;-72
2022/06/05 10:19:29;;;;;;;7.60;6.90;;;;;;;26.75;47.02;99046.58;220357;1273;22550;-72
2022/06/05 10:24:34;;;;;;;8.30;7.50;;;;;;;26.78;45.98;99037.34;220615;1273;23286;-72
2022/06/05 10:29:50;;;;;;;8.40;7.70;;;;;;;26.70;45.94;99028.44;220615;1273;22706;-72
2022/06/05 10:35:17;;;;;;;8.90;8.10;;;;;;;26.93;45.89;99026.34;220860;1271;24422;-71
2022/06/05 10:40:29;;;;;;;7.60;7.00;;;;;;;27.04;45.06;99025.64;220741;1271;22929;-72
2022/06/05 10:45:49;;;;;;;9.60;8.80;;;;;;;27.15;44.34;99023.73;220568;1271;25397;-72
2022/06/05 10:51:21;;;;;;;8.20;7.40;;;;;;;27.30;44.07;99018.14;220546;1271;24333;-71
2022/06/05 10:56:44;;;;;;;8.90;8.10;;;;;;;27.52;43.72;99014.97;220758;1271;22563;-72
2022/06/05 11:02:18;;;;;;;8.20;7.50;;;;;;;27.65;43.68;99011.95;220589;1271;22619;-71
2022/06/05 11:08:02;;;;;;;9.00;8.20;;;;;;;27.73;43.24;99014.28;220409;1273;24269;-73
2022/06/05 11:19:02;;;;;;;9.10;8.20;;;;;;;27.72;41.53;99013.50;220469;1271;26454;-72
2022/06/05 11:24:23;;;;;;;11.50;10.50;;;;;;;27.49;41.68;99006.27;220523;1271;22534;-73
2022/06/05 11:29:42;;;;;;;7.90;7.20;;;;;;;27.13;41.91;99003.86;220856;1271;25489;-73
2022/06/05 11:34:53;;;;;;;8.40;7.70;;;;;;;27.04;42.25;98994.60;220603;1273;25360;-73
2022/06/05 11:40:40;;;;;;;8.70;7.90;;;;;;;27.05;42.23;98996.02;220650;1273;26264;-72
2022/06/05 11:45:58;;;;;;;8.20;7.60;;;;;;;27.13;41.83;98983.21;220280;1273;22581;-72
2022/06/05 11:51:30;;;;;;;7.80;7.10;;;;;;;27.28;41.84;98972.96;220549;1273;22567;-72
2022/06/05 11:57:09;;;;;;;8.00;7.40;;;;;;;27.50;41.95;98969.79;220759;1273;22556;-73
2022/06/05 12:02:11;;;;;;;8.10;7.50;;;;;;;27.71;41.51;98958.31;220435;1273;22640;-72
2022/06/05 12:07:15;;;;;;;7.80;7.10;;;;;;;27.86;41.13;98951.94;220541;1273;22549;-72
2022/06/05 12:12:30;;;;;;;7.40;6.80;;;;;;;27.95;40.90;98952.61;220547;1271;432000;-72
2022/06/05 12:17:42;;;;;;;6.80;6.30;;;;;;;28.03;41.04;98947.09;220944;1272;22544;-72
2022/06/05 12:22:54;;;;;;;8.20;7.60;;;;;;;27.69;40.61;98939.05;221162;1271;24954;-71
2022/06/05 12:28:07;;;;;;;7.40;6.90;;;;;;;27.50;41.02;98935.27;220700;1273;24318;-71
2022/06/05 12:33:22;;;;;;;7.30;6.80;;;;;;;27.73;40.85;98932.51;220921;1271;22564;-72
2022/06/05 12:38:36;;;;;;;7.40;6.80;;;;;;;28.02;40.78;98930.41;220751;1271;23108;-72
2022/06/05 12:44:06;;;;;;;;;;;;;;;28.22;40.39;98913.54;220768;1271;22567;-71
2022/06/05 12:49:33;;;;;;;7.00;6.50;;;;;;;28.23;39.96;98909.43;220951;1272;23128;-70
2022/06/05 12:54:51;;;;;;;5.90;5.40;;;;;;;28.26;39.44;98903.81;220720;1271;23014;-72
2022/06/05 13:00:51;;;;;;;6.00;5.60;;;;;;;28.07;38.25;98892.15;220547;1273;24334;-72
2022/06/05 13:06:06;;;;;;;5.70;5.30;;;;;;;27.96;38.67;98888.90;220478;1273;25348;-72
2022/06/05 13:11:20;;;;;;;6.60;6.10;;;;;;;28.02;38.28;98884.23;220794;1270;25255;-72
2022/06/05 13:16:40;;;;;;;6.40;5.90;;;;;;;28.09;38.14;98879.88;220829;1271;24226;-71
2022/06/05 13:22:10;;;;;;;6.90;6.30;;;;;;;28.28;38.73;98872.33;220666;1271;24352;-71
2022/06/05 13:27:39;;;;;;;6.80;6.20;;;;;;;28.37;38.55;98870.29;220782;1272;22951;-71
2022/06/05 13:33:22;;;;;;;6.30;5.90;;;;;;;28.19;38.91;98866.89;219453;1271;22563;-72
2022/06/05 13:38:56;;;;;;;5.30;4.90;;;;;;;27.79;38.29;98858.33;220878;1271;22573;-71
2022/06/05 13:44:22;;;;;;;5.80;5.30;;;;;;;27.80;38.21;98857.55;220618;1271;22566;-72
2022/06/05 13:49:55;;;;;;;6.40;5.90;;;;;;;27.91;38.29;98854.17;220574;1271;24263;-72
2022/06/05 13:55:24;;;;;;;6.10;5.60;;;;;;;28.11;38.36;98851.84;220484;1271;22531;-72
2022/06/05 14:00:57;;;;;;;6.10;5.60;;;;;;;28.31;37.96;98844.45;220412;1271;26428;-71
2022/06/05 14:06:18;;;;;;;5.60;5.20;;;;;;;28.46;37.47;98847.39;220446;1271;22537;-72
2022/06/05 14:11:43;;;;;;;5.70;5.30;;;;;;;28.50;37.14;98835.38;220611;1271;25213;-72
2022/06/05 14:16:55;;;;;;;6.00;5.50;;;;;;;28.56;37.47;98829.20;220588;1271;27842;-72
2022/06/05 14:22:27;;;;;;;5.90;5.40;;;;;;;28.55;37.08;98827.94;220518;1271;24257;-71
2022/06/05 14:27:43;;;;;;;5.50;5.10;;;;;;;28.46;36.86;98829.52;220426;1271;24296;-72
2022/06/05 14:32:50;;;;;;;5.70;5.30;;;;;;;28.38;36.67;98828.02;220701;1272;22560;-72
2022/06/05 14:38:07;;;;;;;6.00;5.50;;;;;;;28.38;36.43;98818.34;220668;1271;22641;-71
2022/06/05 14:43:24;;;;;;;5.10;4.80;;;;;;;28.13;36.83;98811.79;220439;1271;25234;-72
2022/06/05 14:48:49;;;;;;;6.10;5.50;;;;;;;27.95;37.10;98806.16;220717;1271;22535;-70
2022/06/05 14:57:51;;;;;;;5.40;4.90;;;;;;;28.00;37.79;98796.00;220692;1272;22558;-70
2022/06/05 14:59:58;;;;;;;5.60;5.20;;;;;;;28.01;37.64;98787.02;220711;1271;22610;-72
2022/06/05 15:05:27;;;;;;;5.10;4.70;;;;;;;27.92;37.05;98784.41;220892;1271;25210;-71
2022/06/05 15:11:10;;;;;;;;;;;;;;;;;;;;;
2022/06/05 15:16:46;;;;;;;5.50;5.10;;;;;;;27.48;38.38;98768.91;220679;1273;23288;-72
2022/06/05 15:22:20;;;;;;;5.30;4.90;;;;;;;27.43;38.03;98763.05;220338;1273;25267;-72
2022/06/05 15:27:55;;;;;;;6.10;5.60;;;;;;;27.31;37.58;98747.46;220581;1272;22636;-71
2022/06/05 15:33:20;;;;;;;6.00;5.50;;;;;;;27.21;37.47;98749.41;220640;1271;24256;-71
2022/06/05 15:38:57;;;;;;;5.40;5.00;;;;;;;27.20;38.25;98742.73;220627;1272;22625;-72
2022/06/05 15:44:19;;;;;;;5.60;5.20;;;;;;;27.24;38.50;98735.64;220535;1271;22574;-72
2022/06/05 15:49:56;;;;;;;5.80;5.30;;;;;;;27.22;38.41;98737.23;220852;1273;25321;-72
2022/06/05 15:55:46;;;;;;;5.50;5.10;;;;;;;27.10;38.28;98738.46;220321;1271;22560;-72
2022/06/05 16:00:51;;;;;;;5.50;5.10;;;;;;;26.78;38.39;98730.20;220456;1271;24292;-71
2022/06/05 16:06:03;;;;;;;5.40;5.00;;;;;;;26.59;38.94;98727.27;220720;1272;22718;-71
2022/06/05 16:11:20;;;;;;;5.40;5.00;;;;;;;26.53;39.60;98724.06;220517;1273;22533;-71
2022/06/05 16:16:56;;;;;;;5.50;5.10;;;;;;;26.51;39.61;98730.59;220807;1271;25388;-71
2022/06/05 16:22:14;;;;;;;5.50;5.10;;;;;;;26.55;39.49;98735.98;220828;1271;24257;-70
2022/06/05 16:27:43;;;;;;;5.70;5.30;;;;;;;26.49;39.13;98730.91;220772;1271;22553;-71
2022/06/05 16:32:45;;;;;;;6.00;5.50;;;;;;;26.37;38.96;98728.27;220667;1271;22819;-72
2022/06/05 16:37:54;;;;;;;5.00;4.70;;;;;;;26.19;39.07;98729.70;220471;1274;22627;-72
2022/06/05 16:43:18;;;;;;;5.20;4.80;;;;;;;26.05;39.55;98729.43;220547;1273;22534;-71
2022/06/05 16:48:23;;;;;;;5.70;5.30;;;;;;;25.94;39.49;98723.77;220511;1273;22534;-71
2022/06/05 16:54:04;;;;;;;5.80;5.30;;;;;;;25.90;39.40;98722.11;221127;1273;24403;-71
2022/06/05 16:59:26;;;;;;;5.50;4.90;;;;;;;25.92;39.16;98726.27;220469;1273;22551;-71
2022/06/05 17:04:50;;;;;;;4.70;4.40;;;;;;;25.91;39.18;98724.07;220692;1273;22551;-71
2022/06/05 17:10:25;;;;;;;5.80;5.30;;;;;;;26.04;39.03;98730.35;220785;1273;22559;-71
2022/06/05 17:15:42;;;;;;;5.10;4.80;;;;;;;26.89;39.00;98726.69;220736;1271;22614;-72
2022/06/05 17:21:22;;;;;;;5.40;5.00;;;;;;;27.93;37.81;98724.46;220686;1271;24327;-70
2022/06/05 17:26:49;;;;;;;5.70;5.20;;;;;;;28.20;37.15;98732.58;220650;1272;22534;-72
2022/06/05 17:32:13;;;;;;;5.00;4.60;;;;;;;28.50;36.77;98729.82;220469;1273;26521;-71
2022/06/05 17:37:28;;;;;;;5.20;4.80;;;;;;;28.33;36.43;98736.30;220554;1272;22584;-71
2022/06/05 17:42:49;;;;;;;5.70;5.30;;;;;;;27.85;36.68;98731.93;220543;1271;22706;-71
2022/06/05 17:48:10;;;;;;;5.80;5.20;;;;;;;27.15;37.47;98733.48;220683;1271;22562;-71
2022/06/05 17:53:22;;;;;;;5.20;4.80;;;;;;;26.35;38.20;98736.73;220939;1273;22632;-71
2022/06/05 17:58:33;;;;;;;5.40;4.80;;;;;;;25.58;38.94;98736.98;220655;1272;22713;-71
2022/06/05 18:03:42;;;;;;;5.40;5.00;;;;;;;24.87;39.69;98733.66;220787;1271;22563;-71
2022/06/05 18:08:45;;;;;;;5.40;5.00;;;;;;;24.27;40.49;98726.92;220651;1271;22556;-71
2022/06/05 18:13:54;;;;;;;5.70;5.30;;;;;;;23.73;41.30;98723.23;220542;1271;24364;-72
2022/06/05 18:19:00;;;;;;;5.80;5.40;;;;;;;23.25;42.06;98724.41;221190;1271;22570;-71
2022/06/05 18:24:09;;;;;;;4.90;4.50;;;;;;;22.84;42.76;98724.16;221032;1272;22617;-70
2022/06/05 18:29:36;;;;;;;4.60;4.30;;;;;;;22.42;43.27;98714.19;220864;1271;22612;-71
2022/06/05 18:34:52;;;;;;;4.60;4.30;;;;;;;22.02;44.05;98709.62;220633;1273;22547;-72
2022/06/05 18:39:57;;;;;;;4.60;4.20;;;;;;;21.64;44.54;98702.71;220535;1272;25212;-70
2022/06/05 18:45:10;;;;;;;4.60;4.20;;;;;;;21.32;45.00;98703.08;220534;1271;25403;-71
2022/06/05 18:50:50;;;;;;;;;;;;;;;;;;;;;
2022/06/05 18:56:05;;;;;;;3.80;3.60;;;;;;;20.67;46.36;98711.16;220667;1271;22565;-72
2022/06/05 19:01:52;;;;;;;5.30;3.50;;;;;;;20.35;47.06;98715.38;220602;1271;22787;-73
2022/06/05 19:07:09;;;;;;;4.20;3.80;;;;;;;20.03;47.74;98698.73;220378;1274;22539;-72
2022/06/05 19:12:30;;;;;;;;;;;;;;;19.83;48.28;98704.39;220528;1272;23837;-71
2022/06/05 19:18:02;;;;;;;4.20;3.80;;;;;;;19.61;48.66;98706.55;220586;1271;22569;-72
2022/06/05 19:23:39;;;;;;;4.20;3.80;;;;;;;19.33;49.25;98698.64;220749;1271;22673;-71
2022/06/05 19:29:12;;;;;;;4.80;4.40;;;;;;;19.07;50.13;98707.86;220535;1273;23325;-71
2022/06/05 19:34:58;;;;;;;4.20;3.80;;;;;;;18.86;50.83;98724.58;220497;1271;25501;-70
2022/06/05 19:40:11;;;;;;;4.60;4.30;;;;;;;18.67;51.33;98729.16;220415;1272;22573;-71
2022/06/05 19:45:44;;;;;;;4.70;4.30;;;;;;;18.49;51.82;98739.88;220681;1271;22581;-70
2022/06/05 19:51:02;;;;;;;5.00;4.50;;;;;;;18.32;52.02;98745.10;220786;1272;22551;-71
2022/06/05 19:56:11;;;;;;;4.30;4.00;;;;;;;18.21;52.58;98751.89;220312;1271;24323;-72
2022/06/05 20:01:26;;;;;;;4.50;4.10;;;;;;;18.12;52.90;98748.66;220741;1272;22550;-71
2022/06/05 20:06:57;;;;;;;4.60;4.20;;;;;;;18.02;53.24;98754.14;220515;1273;22707;-71
2022/06/05 20:12:05;;;;;;;4.80;4.40;;;;;;;17.95;53.53;98755.25;220556;1271;25581;-71
2022/06/05 20:17:31;;;;;;;9.20;8.30;;;;;;;17.90;53.82;98748.42;220918;1273;24233;-71
2022/06/05 20:22:49;;;;;;;5.80;5.30;;;;;;;17.93;54.02;98750.14;220387;1273;22839;-71
2022/06/05 20:28:20;;;;;;;5.20;4.30;;;;;;;17.94;54.08;98751.58;220725;1271;24444;-70
2022/06/05 20:33:32;;;;;;;5.60;4.80;;;;;;;17.87;54.11;98760.55;220694;1271;22621;-71
2022/06/05 20:38:49;;;;;;;5.00;4.60;;;;;;;17.79;54.36;98774.13;220581;1271;24266;-70
2022/06/05 20:43:55;;;;;;;5.30;4.80;;;;;;;17.68;54.45;98782.81;220449;1271;25372;-71
2022/06/05 20:49:14;;;;;;;5.00;4.50;;;;;;;17.55;54.71;98781.74;220704;1271;22683;-71
2022/06/05 20:54:25;;;;;;;5.40;5.00;;;;;;;17.44;54.98;98781.09;220607;1271;24431;-72
2022/06/05 20:59:35;;;;;;;5.30;4.80;;;;;;;17.35;55.21;98776.52;220628;1271;25309;-71
2022/06/05 21:10:11;;;;;;;4.60;4.20;;;;;;;17.19;55.41;98781.05;220550;1271;22541;-71
2022/06/05 21:20:58;;;;;;;4.50;4.10;;;;;;;17.02;55.62;98774.35;220329;1274;25314;-71
2022/06/05 21:26:17;;;;;;;4.20;3.90;;;;;;;17.03;55.62;98774.60;219415;1271;23085;-70
2022/06/05 21:31:35;;;;;;;4.70;3.90;;;;;;;16.95;55.60;98768.30;219600;1271;22614;-71
2022/06/05 21:37:09;;;;;;;5.10;4.00;;;;;;;16.85;55.50;98770.68;220660;1271;22532;-72
2022/06/05 21:42:35;;;;;;;4.80;3.60;;;;;;;16.75;55.54;98760.65;220410;1271;22566;-72
2022/06/05 21:47:55;;;;;;;4.40;4.00;;;;;;;16.67;55.52;98747.35;220867;1271;25336;-72
2022/06/05 21:53:18;;;;;;;4.50;3.80;;;;;;;16.56;55.48;98736.61;221167;1271;24378;-72
2022/06/05 21:59:06;;;;;;;4.80;3.60;;;;;;;16.41;55.62;98721.06;220772;1274;22540;-70
2022/06/05 22:04:47;;;;;;;4.50;3.90;;;;;;;16.29;55.74;98712.04;220540;1274;22591;-71
2022/06/05 22:09:56;;;;;;;4.60;4.20;;;;;;;16.18;55.93;98709.85;220530;1273;22716;-70
2022/06/05 22:15:18;;;;;;;4.30;3.90;;;;;;;16.04;56.32;98704.52;219990;1273;27050;-70
2022/06/05 22:20:40;;;;;;;4.70;4.30;;;;;;;15.90;56.48;98696.65;220431;1273;25371;-70
2022/06/05 22:26:03;;;;;;;5.00;4.50;;;;;;;15.79;56.88;98693.92;220605;1271;22538;-70
2022/06/05 22:31:14;;;;;;;6.00;4.40;;;;;;;15.71;57.11;98697.16;220609;1271;22592;-71
2022/06/05 22:36:35;;;;;;;4.40;3.90;;;;;;;15.63;57.25;98706.39;220431;1271;22571;-70
2022/06/05 22:41:49;;;;;;;4.50;4.10;;;;;;;15.51;57.50;98705.22;220862;1271;22592;-71
2022/06/05 22:47:07;;;;;;;6.40;4.60;;;;;;;15.44;57.86;98714.20;220773;1271;24224;-70
2022/06/05 22:52:41;;;;;;;4.50;4.10;;;;;;;15.39;57.98;98714.52;220522;1272;23246;-70
2022/06/05 22:57:53;;;;;;;4.50;4.10;;;;;;;15.35;58.28;98712.30;220542;1271;22540;-70
2022/06/05 23:03:01;;;;;;;5.60;4.40;;;;;;;15.29;58.40;98708.17;220952;1271;24437;-70
2022/06/05 23:08:07;;;;;;;5.30;4.80;;;;;;;15.26;58.60;98712.37;220563;1272;22557;-71
2022/06/05 23:13:16;;;;;;;6.00;4.70;;;;;;;15.27;58.83;98716.14;220447;1271;22487;-68
2022/06/05 23:18:22;;;;;;;7.10;4.90;;;;;;;15.24;59.00;98712.13;219537;1274;22548;-70
2022/06/05 23:23:42;;;;;;;5.20;4.80;;;;;;;15.22;59.18;98713.67;219907;1276;25253;-69
2022/06/05 23:29:15;;;;;;;5.10;4.50;;;;;;;15.21;59.58;98709.84;219734;1274;22550;-67
2022/06/05 23:34:52;;;;;;;5.10;4.60;;;;;;;15.15;59.73;98684.52;219654;1274;22559;-69
2022/06/05 23:40:04;;;;;;;6.10;5.50;;;;;;;15.12;60.06;98674.23;219332;1274;22612;-69
2022/06/05 23:45:13;;;;;;;5.80;5.30;;;;;;;15.16;60.52;98680.48;219454;1274;23947;-68
2022/06/05 23:50:16;;;;;;;7.10;5.50;;;;;;;15.18;60.75;98683.02;219675;1274;22537;-69
2022/06/05 23:55:22;;;;;;;7.10;5.80;;;;;;;15.11;60.83;98680.13;220616;1272;22984;-69
